sensor_id;sensor_type;location;lat;lon;timestamp;temperature;humidity
25951;DHT22;13748;52.240;6.002;2023-02-13T00:00:10;8.20;99.90
25951;DHT22;13748;52.240;6.002;2023-02-13T00:02:37;8.20;99.90
25951;DHT22;13748;52.240;6.002;2023-02-13T00:05:05;8.20;99.90
25951;DHT22;13748;52.240;6.002;2023-02-13T00:07:31;8.20;99.90
25951;DHT22;13748;52.240;6.002;2023-02-13T00:09:58;8.20;99.90
25951;DHT22;13748;52.240;6.002;2023-02-13T00:12:25;8.20;99.90
25951;DHT22;13748;52.240;6.002;2023-02-13T00:14:51;8.20;99.90
25951;DHT22;13748;52.240;6.002;2023-02-13T00:17:18;8.20;99.90
25951;DHT22;13748;52.240;6.002;2023-02-13T00:19:45;8.20;99.90
25951;DHT22;13748;52.240;6.002;2023-02-13T00:22:12;8.20;99.90
25951;DHT22;13748;52.240;6.002;2023-02-13T00:24:38;8.10;99.90
25951;DHT22;13748;52.240;6.002;2023-02-13T00:27:05;8.10;99.90
25951;DHT22;13748;52.240;6.002;2023-02-13T00:29:32;8.10;99.90
25951;DHT22;13748;52.240;6.002;2023-02-13T00:31:58;8.10;99.90
25951;DHT22;13748;52.240;6.002;2023-02-13T00:34:27;8.10;99.90
25951;DHT22;13748;52.240;6.002;2023-02-13T00:36:54;8.10;99.90
25951;DHT22;13748;52.240;6.002;2023-02-13T00:39:20;8.10;99.90
25951;DHT22;13748;52.240;6.002;2023-02-13T00:41:47;8.10;99.90
25951;DHT22;13748;52.240;6.002;2023-02-13T00:44:14;8.10;99.90
25951;DHT22;13748;52.240;6.002;2023-02-13T00:46:40;8.10;99.90
25951;DHT22;13748;52.240;6.002;2023-02-13T00:49:07;8.10;99.90
25951;DHT22;13748;52.240;6.002;2023-02-13T00:51:34;8.10;99.90
25951;DHT22;13748;52.240;6.002;2023-02-13T00:54:00;8.10;99.90
25951;DHT22;13748;52.240;6.002;2023-02-13T00:56:27;8.10;99.90
25951;DHT22;13748;52.240;6.002;2023-02-13T00:58:54;8.10;99.90
25951;DHT22;13748;52.240;6.002;2023-02-13T01:01:20;8.10;99.90
25951;DHT22;13748;52.240;6.002;2023-02-13T01:03:47;8.00;99.90
25951;DHT22;13748;52.240;6.002;2023-02-13T01:06:14;8.00;99.90
25951;DHT22;13748;52.240;6.002;2023-02-13T01:08:41;8.00;99.90
25951;DHT22;13748;52.240;6.002;2023-02-13T01:11:08;8.10;99.90
25951;DHT22;13748;52.240;6.002;2023-02-13T01:13:35;8.00;99.90
25951;DHT22;13748;52.240;6.002;2023-02-13T01:16:02;8.00;99.90
25951;DHT22;13748;52.240;6.002;2023-02-13T01:18:28;8.00;99.90
25951;DHT22;13748;52.240;6.002;2023-02-13T01:21:04;8.00;99.90
25951;DHT22;13748;52.240;6.002;2023-02-13T01:23:33;8.00;99.90
25951;DHT22;13748;52.240;6.002;2023-02-13T01:26:00;7.90;99.90
25951;DHT22;13748;52.240;6.002;2023-02-13T01:28:28;7.90;99.90
25951;DHT22;13748;52.240;6.002;2023-02-13T01:30:56;7.90;99.90
25951;DHT22;13748;52.240;6.002;2023-02-13T01:33:25;7.90;99.90
25951;DHT22;13748;52.240;6.002;2023-02-13T01:35:53;7.90;99.90
25951;DHT22;13748;52.240;6.002;2023-02-13T01:38:19;7.90;99.90
25951;DHT22;13748;52.240;6.002;2023-02-13T01:40:48;7.90;99.90
25951;DHT22;13748;52.240;6.002;2023-02-13T01:43:15;7.90;99.90
25951;DHT22;13748;52.240;6.002;2023-02-13T01:45:44;7.90;99.90
25951;DHT22;13748;52.240;6.002;2023-02-13T01:48:24;7.90;99.90
25951;DHT22;13748;52.240;6.002;2023-02-13T01:51:17;7.90;99.90
25951;DHT22;13748;52.240;6.002;2023-02-13T01:53:52;7.80;99.90
25951;DHT22;13748;52.240;6.002;2023-02-13T01:56:28;7.80;99.90
25951;DHT22;13748;52.240;6.002;2023-02-13T01:59:01;7.80;99.90
25951;DHT22;13748;52.240;6.002;2023-02-13T02:01:30;7.80;99.90
25951;DHT22;13748;52.240;6.002;2023-02-13T02:04:03;7.80;99.90
25951;DHT22;13748;52.240;6.002;2023-02-13T02:06:42;7.80;99.90
25951;DHT22;13748;52.240;6.002;2023-02-13T02:09:13;7.80;99.90
25951;DHT22;13748;52.240;6.002;2023-02-13T02:14:48;7.80;99.90
25951;DHT22;13748;52.240;6.002;2023-02-13T02:17:16;7.80;99.90
25951;DHT22;13748;52.240;6.002;2023-02-13T02:22:53;7.80;99.90
25951;DHT22;13748;52.240;6.002;2023-02-13T02:47:32;7.70;99.90
25951;DHT22;13748;52.240;6.002;2023-02-13T02:50:49;7.70;99.90
25951;DHT22;13748;52.240;6.002;2023-02-13T02:56:13;7.70;99.90
25951;DHT22;13748;52.240;6.002;2023-02-13T02:58:53;7.70;99.90
25951;DHT22;13748;52.240;6.002;2023-02-13T03:01:40;7.70;99.90
25951;DHT22;13748;52.240;6.002;2023-02-13T03:04:35;7.70;99.90
25951;DHT22;13748;52.240;6.002;2023-02-13T03:07:22;7.70;99.90
25951;DHT22;13748;52.240;6.002;2023-02-13T03:09:52;7.80;99.90
25951;DHT22;13748;52.240;6.002;2023-02-13T03:12:50;7.70;99.90
25951;DHT22;13748;52.240;6.002;2023-02-13T03:15:41;7.70;99.90
25951;DHT22;13748;52.240;6.002;2023-02-13T03:18:30;7.70;99.90
25951;DHT22;13748;52.240;6.002;2023-02-13T03:24:24;7.70;99.90
25951;DHT22;13748;52.240;6.002;2023-02-13T03:30:21;7.70;99.90
25951;DHT22;13748;52.240;6.002;2023-02-13T03:33:00;7.70;99.90
25951;DHT22;13748;52.240;6.002;2023-02-13T03:38:25;7.60;99.90
25951;DHT22;13748;52.240;6.002;2023-02-13T03:41:37;7.60;99.90
25951;DHT22;13748;52.240;6.002;2023-02-13T03:46:40;7.60;99.90
25951;DHT22;13748;52.240;6.002;2023-02-13T03:49:12;7.70;99.90
25951;DHT22;13748;52.240;6.002;2023-02-13T03:52:15;7.70;99.90
25951;DHT22;13748;52.240;6.002;2023-02-13T03:54:49;7.60;99.90
25951;DHT22;13748;52.240;6.002;2023-02-13T03:57:39;7.60;99.90
25951;DHT22;13748;52.240;6.002;2023-02-13T04:00:28;7.70;99.90
25951;DHT22;13748;52.240;6.002;2023-02-13T04:03:13;7.70;99.90
25951;DHT22;13748;52.240;6.002;2023-02-13T04:05:53;7.70;99.90
25951;DHT22;13748;52.240;6.002;2023-02-13T04:08:21;7.60;99.90
25951;DHT22;13748;52.240;6.002;2023-02-13T04:11:06;7.70;99.90
25951;DHT22;13748;52.240;6.002;2023-02-13T04:13:41;7.70;99.90
25951;DHT22;13748;52.240;6.002;2023-02-13T04:16:15;7.70;99.90
25951;DHT22;13748;52.240;6.002;2023-02-13T04:18:44;7.70;99.90
25951;DHT22;13748;52.240;6.002;2023-02-13T04:21:11;7.70;99.90
25951;DHT22;13748;52.240;6.002;2023-02-13T04:23:37;7.70;99.90
25951;DHT22;13748;52.240;6.002;2023-02-13T04:26:08;7.70;99.90
25951;DHT22;13748;52.240;6.002;2023-02-13T04:28:39;7.80;99.90
25951;DHT22;13748;52.240;6.002;2023-02-13T04:31:06;7.70;99.90
25951;DHT22;13748;52.240;6.002;2023-02-13T04:33:33;7.80;99.90
25951;DHT22;13748;52.240;6.002;2023-02-13T04:36:00;7.80;99.90
25951;DHT22;13748;52.240;6.002;2023-02-13T04:38:26;7.80;99.90
25951;DHT22;13748;52.240;6.002;2023-02-13T04:40:53;7.80;99.90
25951;DHT22;13748;52.240;6.002;2023-02-13T04:43:20;7.80;99.90
25951;DHT22;13748;52.240;6.002;2023-02-13T04:45:50;7.80;99.90
25951;DHT22;13748;52.240;6.002;2023-02-13T04:48:17;7.80;99.90
25951;DHT22;13748;52.240;6.002;2023-02-13T04:50:44;7.80;99.90
25951;DHT22;13748;52.240;6.002;2023-02-13T04:53:10;7.80;99.90
25951;DHT22;13748;52.240;6.002;2023-02-13T04:55:37;7.80;99.90
25951;DHT22;13748;52.240;6.002;2023-02-13T04:58:04;7.80;99.90
25951;DHT22;13748;52.240;6.002;2023-02-13T05:00:30;7.80;99.90
25951;DHT22;13748;52.240;6.002;2023-02-13T05:03:09;7.80;99.90
25951;DHT22;13748;52.240;6.002;2023-02-13T05:05:36;7.90;99.90
25951;DHT22;13748;52.240;6.002;2023-02-13T05:08:06;7.80;99.90
25951;DHT22;13748;52.240;6.002;2023-02-13T05:10:33;7.80;99.90
25951;DHT22;13748;52.240;6.002;2023-02-13T05:13:00;7.80;99.90
25951;DHT22;13748;52.240;6.002;2023-02-13T05:15:27;7.80;99.90
25951;DHT22;13748;52.240;6.002;2023-02-13T05:17:54;7.80;99.90
25951;DHT22;13748;52.240;6.002;2023-02-13T05:20:20;7.90;99.90
25951;DHT22;13748;52.240;6.002;2023-02-13T05:22:49;7.90;99.90
25951;DHT22;13748;52.240;6.002;2023-02-13T05:25:36;7.80;99.90
25951;DHT22;13748;52.240;6.002;2023-02-13T05:28:03;7.80;99.90
25951;DHT22;13748;52.240;6.002;2023-02-13T05:30:30;7.80;99.90
25951;DHT22;13748;52.240;6.002;2023-02-13T05:32:57;7.80;99.90
25951;DHT22;13748;52.240;6.002;2023-02-13T05:35:24;7.80;99.90
25951;DHT22;13748;52.240;6.002;2023-02-13T05:37:51;7.80;99.90
25951;DHT22;13748;52.240;6.002;2023-02-13T05:40:18;7.80;99.90
25951;DHT22;13748;52.240;6.002;2023-02-13T05:42:45;7.80;99.90
25951;DHT22;13748;52.240;6.002;2023-02-13T05:45:12;7.80;99.90
25951;DHT22;13748;52.240;6.002;2023-02-13T05:47:39;7.80;99.90
25951;DHT22;13748;52.240;6.002;2023-02-13T05:50:06;7.80;99.90
25951;DHT22;13748;52.240;6.002;2023-02-13T05:52:33;7.80;99.90
25951;DHT22;13748;52.240;6.002;2023-02-13T05:55:00;7.80;99.90
25951;DHT22;13748;52.240;6.002;2023-02-13T05:57:26;7.80;99.90
25951;DHT22;13748;52.240;6.002;2023-02-13T05:59:53;7.80;99.90
25951;DHT22;13748;52.240;6.002;2023-02-13T06:02:19;7.80;99.90
25951;DHT22;13748;52.240;6.002;2023-02-13T06:04:47;7.80;99.90
25951;DHT22;13748;52.240;6.002;2023-02-13T06:07:14;7.80;99.90
25951;DHT22;13748;52.240;6.002;2023-02-13T06:09:40;7.80;99.90
25951;DHT22;13748;52.240;6.002;2023-02-13T06:12:07;7.80;99.90
25951;DHT22;13748;52.240;6.002;2023-02-13T06:14:34;7.80;99.90
25951;DHT22;13748;52.240;6.002;2023-02-13T06:17:01;7.80;99.90
25951;DHT22;13748;52.240;6.002;2023-02-13T06:19:27;7.80;99.90
25951;DHT22;13748;52.240;6.002;2023-02-13T06:21:54;7.80;99.90
25951;DHT22;13748;52.240;6.002;2023-02-13T06:24:21;7.80;99.90
25951;DHT22;13748;52.240;6.002;2023-02-13T06:26:47;7.80;99.90
25951;DHT22;13748;52.240;6.002;2023-02-13T06:29:14;7.80;99.90
25951;DHT22;13748;52.240;6.002;2023-02-13T06:31:41;7.80;99.90
25951;DHT22;13748;52.240;6.002;2023-02-13T06:34:08;7.80;99.90
25951;DHT22;13748;52.240;6.002;2023-02-13T06:36:35;7.80;99.90
25951;DHT22;13748;52.240;6.002;2023-02-13T06:39:03;7.80;99.90
25951;DHT22;13748;52.240;6.002;2023-02-13T06:41:30;7.80;99.90
25951;DHT22;13748;52.240;6.002;2023-02-13T06:43:57;7.80;99.90
25951;DHT22;13748;52.240;6.002;2023-02-13T06:46:23;7.80;99.90
25951;DHT22;13748;52.240;6.002;2023-02-13T06:48:50;7.80;99.90
25951;DHT22;13748;52.240;6.002;2023-02-13T06:51:17;7.80;99.90
25951;DHT22;13748;52.240;6.002;2023-02-13T06:53:44;7.80;99.90
25951;DHT22;13748;52.240;6.002;2023-02-13T06:56:10;7.70;99.90
25951;DHT22;13748;52.240;6.002;2023-02-13T06:58:37;7.70;99.90
25951;DHT22;13748;52.240;6.002;2023-02-13T07:01:05;7.70;99.90
25951;DHT22;13748;52.240;6.002;2023-02-13T07:03:32;7.70;99.90
25951;DHT22;13748;52.240;6.002;2023-02-13T07:05:59;7.70;99.90
25951;DHT22;13748;52.240;6.002;2023-02-13T07:08:26;7.70;99.90
25951;DHT22;13748;52.240;6.002;2023-02-13T07:10:52;7.70;99.90
25951;DHT22;13748;52.240;6.002;2023-02-13T07:13:20;7.70;99.90
25951;DHT22;13748;52.240;6.002;2023-02-13T07:15:47;7.70;99.90
25951;DHT22;13748;52.240;6.002;2023-02-13T07:18:13;7.70;99.90
25951;DHT22;13748;52.240;6.002;2023-02-13T07:20:40;7.70;99.90
25951;DHT22;13748;52.240;6.002;2023-02-13T07:23:07;7.80;99.90
25951;DHT22;13748;52.240;6.002;2023-02-13T07:25:34;7.80;99.90
25951;DHT22;13748;52.240;6.002;2023-02-13T07:28:04;7.80;99.90
25951;DHT22;13748;52.240;6.002;2023-02-13T07:30:32;7.80;99.90
25951;DHT22;13748;52.240;6.002;2023-02-13T07:33:03;7.80;99.90
25951;DHT22;13748;52.240;6.002;2023-02-13T07:35:31;7.80;99.90
25951;DHT22;13748;52.240;6.002;2023-02-13T07:37:57;7.90;99.90
25951;DHT22;13748;52.240;6.002;2023-02-13T07:40:26;7.80;99.90
25951;DHT22;13748;52.240;6.002;2023-02-13T07:42:53;7.90;99.90
25951;DHT22;13748;52.240;6.002;2023-02-13T07:45:20;7.90;99.90
25951;DHT22;13748;52.240;6.002;2023-02-13T07:47:47;7.90;99.90
25951;DHT22;13748;52.240;6.002;2023-02-13T07:50:13;7.90;99.90
25951;DHT22;13748;52.240;6.002;2023-02-13T07:52:40;7.90;99.90
25951;DHT22;13748;52.240;6.002;2023-02-13T07:55:07;7.90;99.90
25951;DHT22;13748;52.240;6.002;2023-02-13T07:57:34;8.00;99.90
25951;DHT22;13748;52.240;6.002;2023-02-13T08:00:00;8.00;99.90
25951;DHT22;13748;52.240;6.002;2023-02-13T08:02:27;8.00;99.90
25951;DHT22;13748;52.240;6.002;2023-02-13T08:04:54;8.00;99.90
25951;DHT22;13748;52.240;6.002;2023-02-13T08:07:21;8.10;99.90
25951;DHT22;13748;52.240;6.002;2023-02-13T08:09:47;8.00;99.90
25951;DHT22;13748;52.240;6.002;2023-02-13T08:12:34;8.10;99.90
25951;DHT22;13748;52.240;6.002;2023-02-13T08:15:02;8.00;99.90
25951;DHT22;13748;52.240;6.002;2023-02-13T08:17:29;8.10;99.90
25951;DHT22;13748;52.240;6.002;2023-02-13T08:19:56;8.10;99.90
25951;DHT22;13748;52.240;6.002;2023-02-13T08:22:23;8.10;99.90
25951;DHT22;13748;52.240;6.002;2023-02-13T08:24:50;8.20;99.90
25951;DHT22;13748;52.240;6.002;2023-02-13T08:27:16;8.20;99.90
25951;DHT22;13748;52.240;6.002;2023-02-13T08:29:43;8.20;99.90
25951;DHT22;13748;52.240;6.002;2023-02-13T08:32:10;8.20;99.90
25951;DHT22;13748;52.240;6.002;2023-02-13T08:34:36;8.30;99.90
25951;DHT22;13748;52.240;6.002;2023-02-13T08:37:03;8.30;99.90
25951;DHT22;13748;52.240;6.002;2023-02-13T08:39:30;8.30;99.90
25951;DHT22;13748;52.240;6.002;2023-02-13T08:41:56;8.30;99.90
25951;DHT22;13748;52.240;6.002;2023-02-13T08:44:23;8.20;99.90
25951;DHT22;13748;52.240;6.002;2023-02-13T08:46:50;8.20;99.90
25951;DHT22;13748;52.240;6.002;2023-02-13T08:49:17;8.30;99.90
25951;DHT22;13748;52.240;6.002;2023-02-13T08:51:43;8.30;99.90
25951;DHT22;13748;52.240;6.002;2023-02-13T08:54:10;8.30;99.90
25951;DHT22;13748;52.240;6.002;2023-02-13T08:56:37;8.40;99.90
25951;DHT22;13748;52.240;6.002;2023-02-13T08:59:04;8.40;99.90
25951;DHT22;13748;52.240;6.002;2023-02-13T09:01:30;8.50;99.90
25951;DHT22;13748;52.240;6.002;2023-02-13T09:03:57;8.60;99.90
25951;DHT22;13748;52.240;6.002;2023-02-13T09:06:26;8.70;99.90
25951;DHT22;13748;52.240;6.002;2023-02-13T09:08:53;8.70;99.90
25951;DHT22;13748;52.240;6.002;2023-02-13T09:11:20;8.80;99.90
25951;DHT22;13748;52.240;6.002;2023-02-13T09:13:52;8.80;99.90
25951;DHT22;13748;52.240;6.002;2023-02-13T09:16:19;8.90;99.90
25951;DHT22;13748;52.240;6.002;2023-02-13T09:18:47;9.00;99.90
25951;DHT22;13748;52.240;6.002;2023-02-13T09:21:14;9.00;99.90
25951;DHT22;13748;52.240;6.002;2023-02-13T09:23:41;9.10;99.90
25951;DHT22;13748;52.240;6.002;2023-02-13T09:26:10;9.10;99.90
25951;DHT22;13748;52.240;6.002;2023-02-13T09:28:38;9.20;99.90
25951;DHT22;13748;52.240;6.002;2023-02-13T09:33:37;9.30;99.90
25951;DHT22;13748;52.240;6.002;2023-02-13T09:36:08;9.40;99.90
25951;DHT22;13748;52.240;6.002;2023-02-13T09:38:35;9.40;99.90
25951;DHT22;13748;52.240;6.002;2023-02-13T09:41:06;9.40;99.90
25951;DHT22;13748;52.240;6.002;2023-02-13T09:43:57;9.50;99.90
25951;DHT22;13748;52.240;6.002;2023-02-13T09:46:30;9.60;99.90
25951;DHT22;13748;52.240;6.002;2023-02-13T09:49:02;9.60;99.90
25951;DHT22;13748;52.240;6.002;2023-02-13T09:51:31;9.70;99.90
25951;DHT22;13748;52.240;6.002;2023-02-13T09:54:02;9.80;99.90
25951;DHT22;13748;52.240;6.002;2023-02-13T09:56:50;9.80;99.90
25951;DHT22;13748;52.240;6.002;2023-02-13T10:14:05;9.90;99.90
25951;DHT22;13748;52.240;6.002;2023-02-13T10:16:38;10.00;99.90
25951;DHT22;13748;52.240;6.002;2023-02-13T10:21:51;10.00;99.90
25951;DHT22;13748;52.240;6.002;2023-02-13T10:26:52;10.00;99.90
25951;DHT22;13748;52.240;6.002;2023-02-13T10:29:23;10.10;99.90
25951;DHT22;13748;52.240;6.002;2023-02-13T10:32:11;10.10;99.90
25951;DHT22;13748;52.240;6.002;2023-02-13T10:34:44;10.20;99.90
25951;DHT22;13748;52.240;6.002;2023-02-13T10:37:19;10.20;99.90
25951;DHT22;13748;52.240;6.002;2023-02-13T10:39:48;10.20;99.90
25951;DHT22;13748;52.240;6.002;2023-02-13T10:45:02;10.20;99.90
25951;DHT22;13748;52.240;6.002;2023-02-13T10:47:41;10.20;99.90
25951;DHT22;13748;52.240;6.002;2023-02-13T10:53:02;10.40;99.90
25951;DHT22;13748;52.240;6.002;2023-02-13T10:59:05;10.40;99.90
25951;DHT22;13748;52.240;6.002;2023-02-13T11:04:36;10.40;99.90
25951;DHT22;13748;52.240;6.002;2023-02-13T11:07:04;10.40;99.90
25951;DHT22;13748;52.240;6.002;2023-02-13T11:09:40;10.50;99.90
25951;DHT22;13748;52.240;6.002;2023-02-13T11:14:57;10.50;99.90
25951;DHT22;13748;52.240;6.002;2023-02-13T11:17:27;10.60;99.90
25951;DHT22;13748;52.240;6.002;2023-02-13T11:19:57;10.60;99.90
25951;DHT22;13748;52.240;6.002;2023-02-13T11:24:55;10.80;99.90
25951;DHT22;13748;52.240;6.002;2023-02-13T11:27:27;10.80;99.90
25951;DHT22;13748;52.240;6.002;2023-02-13T11:29:59;10.90;99.90
25951;DHT22;13748;52.240;6.002;2023-02-13T11:32:32;10.90;99.90
25951;DHT22;13748;52.240;6.002;2023-02-13T11:35:30;11.00;99.90
25951;DHT22;13748;52.240;6.002;2023-02-13T11:40:37;11.00;99.90
25951;DHT22;13748;52.240;6.002;2023-02-13T11:43:05;11.00;99.90
25951;DHT22;13748;52.240;6.002;2023-02-13T11:45:32;11.00;99.90
25951;DHT22;13748;52.240;6.002;2023-02-13T11:47:59;11.00;99.90
25951;DHT22;13748;52.240;6.002;2023-02-13T11:50:32;11.10;99.90
25951;DHT22;13748;52.240;6.002;2023-02-13T11:53:08;11.10;99.90
25951;DHT22;13748;52.240;6.002;2023-02-13T11:55:45;11.10;99.90
25951;DHT22;13748;52.240;6.002;2023-02-13T11:58:28;11.20;99.90
25951;DHT22;13748;52.240;6.002;2023-02-13T12:03:35;11.30;99.90
25951;DHT22;13748;52.240;6.002;2023-02-13T12:06:14;11.30;99.90
25951;DHT22;13748;52.240;6.002;2023-02-13T12:08:44;11.40;99.90
25951;DHT22;13748;52.240;6.002;2023-02-13T12:11:28;11.40;99.90
25951;DHT22;13748;52.240;6.002;2023-02-13T12:13:57;11.50;99.90
25951;DHT22;13748;52.240;6.002;2023-02-13T12:16:49;11.50;99.90
25951;DHT22;13748;52.240;6.002;2023-02-13T12:19:24;11.60;99.90
25951;DHT22;13748;52.240;6.002;2023-02-13T12:30:52;11.60;99.90
25951;DHT22;13748;52.240;6.002;2023-02-13T12:33:48;11.60;99.90
25951;DHT22;13748;52.240;6.002;2023-02-13T12:36:31;11.70;99.90
25951;DHT22;13748;52.240;6.002;2023-02-13T12:42:11;11.70;99.90
25951;DHT22;13748;52.240;6.002;2023-02-13T12:44:55;11.60;99.90
25951;DHT22;13748;52.240;6.002;2023-02-13T12:53:01;11.70;99.90
25951;DHT22;13748;52.240;6.002;2023-02-13T12:58:52;11.80;99.90
25951;DHT22;13748;52.240;6.002;2023-02-13T13:08:03;11.90;99.90
25951;DHT22;13748;52.240;6.002;2023-02-13T13:15:48;11.70;99.90
25951;DHT22;13748;52.240;6.002;2023-02-13T13:21:13;11.60;99.90
25951;DHT22;13748;52.240;6.002;2023-02-13T13:23:58;11.50;99.90
25951;DHT22;13748;52.240;6.002;2023-02-13T13:26:31;11.50;99.90
25951;DHT22;13748;52.240;6.002;2023-02-13T13:29:04;11.50;99.90
25951;DHT22;13748;52.240;6.002;2023-02-13T13:31:34;11.60;99.90
25951;DHT22;13748;52.240;6.002;2023-02-13T13:34:13;11.60;99.90
25951;DHT22;13748;52.240;6.002;2023-02-13T13:37:11;11.60;99.90
25951;DHT22;13748;52.240;6.002;2023-02-13T13:39:53;11.60;99.90
25951;DHT22;13748;52.240;6.002;2023-02-13T13:45:29;11.70;99.90
25951;DHT22;13748;52.240;6.002;2023-02-13T13:50:43;11.60;99.90
25951;DHT22;13748;52.240;6.002;2023-02-13T13:53:16;11.60;99.90
25951;DHT22;13748;52.240;6.002;2023-02-13T13:58:33;11.60;99.90
25951;DHT22;13748;52.240;6.002;2023-02-13T14:01:16;11.60;99.90
25951;DHT22;13748;52.240;6.002;2023-02-13T14:03:53;11.70;99.90
25951;DHT22;13748;52.240;6.002;2023-02-13T14:11:54;11.80;99.90
25951;DHT22;13748;52.240;6.002;2023-02-13T14:16:56;11.70;99.90
25951;DHT22;13748;52.240;6.002;2023-02-13T14:19:33;11.80;99.90
25951;DHT22;13748;52.240;6.002;2023-02-13T14:22:29;11.70;99.90
25951;DHT22;13748;52.240;6.002;2023-02-13T14:24:58;11.80;99.90
25951;DHT22;13748;52.240;6.002;2023-02-13T14:27:39;11.70;99.90
25951;DHT22;13748;52.240;6.002;2023-02-13T14:32:56;11.80;99.90
25951;DHT22;13748;52.240;6.002;2023-02-13T14:35:30;11.70;99.90
25951;DHT22;13748;52.240;6.002;2023-02-13T14:38:00;11.70;99.90
25951;DHT22;13748;52.240;6.002;2023-02-13T14:40:48;11.70;99.90
25951;DHT22;13748;52.240;6.002;2023-02-13T14:46:03;11.70;99.90
25951;DHT22;13748;52.240;6.002;2023-02-13T14:48:42;11.70;99.90
25951;DHT22;13748;52.240;6.002;2023-02-13T14:51:32;11.80;99.90
25951;DHT22;13748;52.240;6.002;2023-02-13T14:54:15;11.80;99.90
25951;DHT22;13748;52.240;6.002;2023-02-13T14:56:46;11.80;99.90
25951;DHT22;13748;52.240;6.002;2023-02-13T14:59:17;11.80;99.90
25951;DHT22;13748;52.240;6.002;2023-02-13T15:01:59;11.70;99.90
25951;DHT22;13748;52.240;6.002;2023-02-13T15:04:34;11.70;99.90
25951;DHT22;13748;52.240;6.002;2023-02-13T15:07:04;11.60;99.90
25951;DHT22;13748;52.240;6.002;2023-02-13T15:09:34;11.60;99.90
25951;DHT22;13748;52.240;6.002;2023-02-13T15:12:01;11.60;99.90
25951;DHT22;13748;52.240;6.002;2023-02-13T15:14:33;11.60;99.90
25951;DHT22;13748;52.240;6.002;2023-02-13T15:17:09;11.50;99.90
25951;DHT22;13748;52.240;6.002;2023-02-13T15:19:43;11.50;99.90
25951;DHT22;13748;52.240;6.002;2023-02-13T15:22:32;11.50;99.90
25951;DHT22;13748;52.240;6.002;2023-02-13T15:25:00;11.50;99.90
25951;DHT22;13748;52.240;6.002;2023-02-13T15:27:31;11.50;99.90
25951;DHT22;13748;52.240;6.002;2023-02-13T15:30:13;11.40;99.90
25951;DHT22;13748;52.240;6.002;2023-02-13T15:32:43;11.40;99.90
25951;DHT22;13748;52.240;6.002;2023-02-13T15:35:31;11.40;99.90
25951;DHT22;13748;52.240;6.002;2023-02-13T15:37:59;11.30;99.90
25951;DHT22;13748;52.240;6.002;2023-02-13T15:40:31;11.40;99.90
25951;DHT22;13748;52.240;6.002;2023-02-13T15:42:59;11.60;99.90
25951;DHT22;13748;52.240;6.002;2023-02-13T15:45:28;11.80;99.90
25951;DHT22;13748;52.240;6.002;2023-02-13T15:47:55;11.90;99.90
25951;DHT22;13748;52.240;6.002;2023-02-13T15:50:28;11.90;99.90
25951;DHT22;13748;52.240;6.002;2023-02-13T15:52:56;11.80;99.90
25951;DHT22;13748;52.240;6.002;2023-02-13T15:55:29;11.70;99.90
25951;DHT22;13748;52.240;6.002;2023-02-13T15:57:59;11.60;99.90
25951;DHT22;13748;52.240;6.002;2023-02-13T16:00:35;11.50;99.90
25951;DHT22;13748;52.240;6.002;2023-02-13T16:03:05;11.30;99.90
25951;DHT22;13748;52.240;6.002;2023-02-13T16:05:37;11.20;99.90
25951;DHT22;13748;52.240;6.002;2023-02-13T16:08:35;11.10;99.90
25951;DHT22;13748;52.240;6.002;2023-02-13T16:25:14;10.50;99.90
25951;DHT22;13748;52.240;6.002;2023-02-13T16:27:50;10.50;99.90
25951;DHT22;13748;52.240;6.002;2023-02-13T16:30:22;10.40;99.90
25951;DHT22;13748;52.240;6.002;2023-02-13T16:32:49;10.30;99.90
25951;DHT22;13748;52.240;6.002;2023-02-13T16:35:27;10.30;99.90
25951;DHT22;13748;52.240;6.002;2023-02-13T16:37:57;10.20;99.90
25951;DHT22;13748;52.240;6.002;2023-02-13T16:46:35;10.00;99.90
25951;DHT22;13748;52.240;6.002;2023-02-13T16:51:42;9.80;99.90
25951;DHT22;13748;52.240;6.002;2023-02-13T17:07:41;9.40;99.90
25951;DHT22;13748;52.240;6.002;2023-02-13T17:10:27;9.30;99.90
25951;DHT22;13748;52.240;6.002;2023-02-13T17:12:56;9.20;99.90
25951;DHT22;13748;52.240;6.002;2023-02-13T17:15:25;9.10;99.90
25951;DHT22;13748;52.240;6.002;2023-02-13T17:17:53;9.00;99.90
25951;DHT22;13748;52.240;6.002;2023-02-13T17:20:25;9.00;99.90
25951;DHT22;13748;52.240;6.002;2023-02-13T17:22:54;8.90;99.90
25951;DHT22;13748;52.240;6.002;2023-02-13T17:25:23;8.80;99.90
25951;DHT22;13748;52.240;6.002;2023-02-13T17:27:53;8.70;99.90
25951;DHT22;13748;52.240;6.002;2023-02-13T17:30:22;8.70;99.90
25951;DHT22;13748;52.240;6.002;2023-02-13T17:32:54;8.60;99.90
25951;DHT22;13748;52.240;6.002;2023-02-13T17:35:22;8.50;99.90
25951;DHT22;13748;52.240;6.002;2023-02-13T17:37:49;8.70;99.90
25951;DHT22;13748;52.240;6.002;2023-02-13T17:40:17;8.60;99.90
25951;DHT22;13748;52.240;6.002;2023-02-13T17:42:46;8.50;99.90
25951;DHT22;13748;52.240;6.002;2023-02-13T17:45:14;8.40;99.90
25951;DHT22;13748;52.240;6.002;2023-02-13T17:47:41;8.30;99.90
25951;DHT22;13748;52.240;6.002;2023-02-13T17:50:09;8.20;99.90
25951;DHT22;13748;52.240;6.002;2023-02-13T17:52:37;8.20;99.90
25951;DHT22;13748;52.240;6.002;2023-02-13T17:55:06;8.10;99.90
25951;DHT22;13748;52.240;6.002;2023-02-13T17:57:33;8.00;99.90
25951;DHT22;13748;52.240;6.002;2023-02-13T18:00:00;8.00;99.90
25951;DHT22;13748;52.240;6.002;2023-02-13T18:02:30;7.90;99.90
25951;DHT22;13748;52.240;6.002;2023-02-13T18:04:57;7.80;99.90
25951;DHT22;13748;52.240;6.002;2023-02-13T18:07:23;7.80;99.90
25951;DHT22;13748;52.240;6.002;2023-02-13T18:09:51;7.70;99.90
25951;DHT22;13748;52.240;6.002;2023-02-13T18:12:20;7.70;99.90
25951;DHT22;13748;52.240;6.002;2023-02-13T18:14:48;7.60;99.90
25951;DHT22;13748;52.240;6.002;2023-02-13T18:17:16;7.50;99.90
25951;DHT22;13748;52.240;6.002;2023-02-13T18:19:43;7.40;99.90
25951;DHT22;13748;52.240;6.002;2023-02-13T18:22:11;7.40;99.90
25951;DHT22;13748;52.240;6.002;2023-02-13T18:24:40;7.30;99.90
25951;DHT22;13748;52.240;6.002;2023-02-13T18:27:07;7.30;99.90
25951;DHT22;13748;52.240;6.002;2023-02-13T18:29:34;7.20;99.90
25951;DHT22;13748;52.240;6.002;2023-02-13T18:32:04;7.10;99.90
25951;DHT22;13748;52.240;6.002;2023-02-13T18:34:34;7.10;99.90
25951;DHT22;13748;52.240;6.002;2023-02-13T18:37:02;7.00;99.90
25951;DHT22;13748;52.240;6.002;2023-02-13T18:39:29;6.90;99.90
25951;DHT22;13748;52.240;6.002;2023-02-13T18:41:56;6.90;99.90
25951;DHT22;13748;52.240;6.002;2023-02-13T18:44:22;6.80;99.90
25951;DHT22;13748;52.240;6.002;2023-02-13T18:46:54;6.80;99.90
25951;DHT22;13748;52.240;6.002;2023-02-13T18:49:21;6.70;99.90
25951;DHT22;13748;52.240;6.002;2023-02-13T18:51:48;6.70;99.90
25951;DHT22;13748;52.240;6.002;2023-02-13T18:54:15;6.60;99.90
25951;DHT22;13748;52.240;6.002;2023-02-13T18:56:44;6.50;99.90
25951;DHT22;13748;52.240;6.002;2023-02-13T18:59:11;6.50;99.90
25951;DHT22;13748;52.240;6.002;2023-02-13T19:01:38;6.40;99.90
25951;DHT22;13748;52.240;6.002;2023-02-13T19:04:04;6.40;99.90
25951;DHT22;13748;52.240;6.002;2023-02-13T19:06:31;6.30;99.90
25951;DHT22;13748;52.240;6.002;2023-02-13T19:08:58;6.20;99.90